sensor_id;sensor_type;location;lat;lon;timestamp;P1;durP1;ratioP1;P2;durP2;ratioP2
72926;SDS011;61071;51.618;19.388;2022-11-20T00:01:40;67.80;;;28.13;;
72926;SDS011;61071;51.618;19.388;2022-11-20T00:04:07;73.22;;;30.63;;
72926;SDS011;61071;51.618;19.388;2022-11-20T00:06:35;69.88;;;27.60;;
72926;SDS011;61071;51.618;19.388;2022-11-20T00:09:00;68.60;;;29.77;;
72926;SDS011;61071;51.618;19.388;2022-11-20T00:11:27;73.72;;;29.63;;
72926;SDS011;61071;51.618;19.388;2022-11-20T00:13:55;71.53;;;29.98;;
72926;SDS011;61071;51.618;19.388;2022-11-20T00:16:26;77.80;;;29.10;;
72926;SDS011;61071;51.618;19.388;2022-11-20T00:18:55;76.60;;;30.58;;
72926;SDS011;61071;51.618;19.388;2022-11-20T00:21:21;69.22;;;28.90;;
72926;SDS011;61071;51.618;19.388;2022-11-20T00:23:50;82.55;;;32.13;;
72926;SDS011;61071;51.618;19.388;2022-11-20T00:26:18;74.00;;;30.42;;
72926;SDS011;61071;51.618;19.388;2022-11-20T00:28:59;68.22;;;29.60;;
72926;SDS011;61071;51.618;19.388;2022-11-20T00:31:26;62.85;;;29.10;;
72926;SDS011;61071;51.618;19.388;2022-11-20T00:33:53;70.03;;;29.88;;
72926;SDS011;61071;51.618;19.388;2022-11-20T00:36:20;70.72;;;29.23;;
72926;SDS011;61071;51.618;19.388;2022-11-20T00:38:52;71.63;;;31.15;;
72926;SDS011;61071;51.618;19.388;2022-11-20T00:41:20;78.45;;;32.30;;
72926;SDS011;61071;51.618;19.388;2022-11-20T00:43:47;73.70;;;31.60;;
72926;SDS011;61071;51.618;19.388;2022-11-20T00:46:14;74.13;;;32.30;;
72926;SDS011;61071;51.618;19.388;2022-11-20T00:48:43;84.80;;;32.38;;
72926;SDS011;61071;51.618;19.388;2022-11-20T00:51:10;72.60;;;31.38;;
72926;SDS011;61071;51.618;19.388;2022-11-20T00:53:39;76.88;;;32.20;;
72926;SDS011;61071;51.618;19.388;2022-11-20T00:56:09;67.78;;;30.90;;
72926;SDS011;61071;51.618;19.388;2022-11-20T00:58:38;74.93;;;30.38;;
72926;SDS011;61071;51.618;19.388;2022-11-20T01:01:08;79.10;;;33.28;;
72926;SDS011;61071;51.618;19.388;2022-11-20T01:03:43;83.00;;;30.70;;
72926;SDS011;61071;51.618;19.388;2022-11-20T01:06:14;76.47;;;32.15;;
72926;SDS011;61071;51.618;19.388;2022-11-20T01:08:42;86.18;;;33.50;;
72926;SDS011;61071;51.618;19.388;2022-11-20T01:11:10;74.03;;;32.20;;
72926;SDS011;61071;51.618;19.388;2022-11-20T01:13:46;77.28;;;30.85;;
72926;SDS011;61071;51.618;19.388;2022-11-20T01:18:45;82.85;;;33.67;;
72926;SDS011;61071;51.618;19.388;2022-11-20T01:21:14;76.80;;;32.10;;
72926;SDS011;61071;51.618;19.388;2022-11-20T01:23:48;78.05;;;33.28;;
72926;SDS011;61071;51.618;19.388;2022-11-20T01:26:17;82.68;;;33.85;;
72926;SDS011;61071;51.618;19.388;2022-11-20T01:29:05;82.82;;;32.17;;
72926;SDS011;61071;51.618;19.388;2022-11-20T01:31:35;82.05;;;33.33;;
72926;SDS011;61071;51.618;19.388;2022-11-20T01:34:06;84.50;;;35.45;;
72926;SDS011;61071;51.618;19.388;2022-11-20T01:36:35;89.90;;;34.60;;
72926;SDS011;61071;51.618;19.388;2022-11-20T01:39:04;94.00;;;34.70;;
72926;SDS011;61071;51.618;19.388;2022-11-20T01:41:36;88.22;;;34.85;;
72926;SDS011;61071;51.618;19.388;2022-11-20T01:44:22;87.72;;;33.58;;
72926;SDS011;61071;51.618;19.388;2022-11-20T01:47:07;85.13;;;32.35;;
72926;SDS011;61071;51.618;19.388;2022-11-20T01:52:13;82.82;;;33.28;;
72926;SDS011;61071;51.618;19.388;2022-11-20T01:54:52;89.82;;;34.45;;
72926;SDS011;61071;51.618;19.388;2022-11-20T01:57:26;86.35;;;33.83;;
72926;SDS011;61071;51.618;19.388;2022-11-20T02:00:06;84.60;;;34.08;;
72926;SDS011;61071;51.618;19.388;2022-11-20T02:02:39;80.20;;;34.42;;
72926;SDS011;61071;51.618;19.388;2022-11-20T02:05:19;84.43;;;35.53;;
72926;SDS011;61071;51.618;19.388;2022-11-20T02:08:10;93.85;;;36.97;;
72926;SDS011;61071;51.618;19.388;2022-11-20T02:10:37;88.07;;;37.05;;
72926;SDS011;61071;51.618;19.388;2022-11-20T02:13:03;86.30;;;33.97;;
72926;SDS011;61071;51.618;19.388;2022-11-20T02:15:48;87.82;;;34.83;;
72926;SDS011;61071;51.618;19.388;2022-11-20T02:18:16;86.55;;;36.55;;
72926;SDS011;61071;51.618;19.388;2022-11-20T02:20:45;88.10;;;38.40;;
72926;SDS011;61071;51.618;19.388;2022-11-20T02:26:00;92.57;;;36.30;;
72926;SDS011;61071;51.618;19.388;2022-11-20T02:28:29;85.85;;;35.55;;
72926;SDS011;61071;51.618;19.388;2022-11-20T02:30:55;89.05;;;35.28;;
72926;SDS011;61071;51.618;19.388;2022-11-20T02:33:21;85.38;;;33.35;;
72926;SDS011;61071;51.618;19.388;2022-11-20T02:35:49;80.82;;;33.47;;
72926;SDS011;61071;51.618;19.388;2022-11-20T02:38:14;87.85;;;35.33;;
72926;SDS011;61071;51.618;19.388;2022-11-20T02:40:40;83.32;;;35.20;;
72926;SDS011;61071;51.618;19.388;2022-11-20T02:43:07;89.65;;;35.00;;
72926;SDS011;61071;51.618;19.388;2022-11-20T02:45:34;86.40;;;35.08;;
72926;SDS011;61071;51.618;19.388;2022-11-20T02:48:00;82.13;;;35.90;;
72926;SDS011;61071;51.618;19.388;2022-11-20T02:50:26;92.25;;;35.65;;
72926;SDS011;61071;51.618;19.388;2022-11-20T02:52:52;88.82;;;37.15;;
72926;SDS011;61071;51.618;19.388;2022-11-20T02:55:17;86.55;;;36.38;;
72926;SDS011;61071;51.618;19.388;2022-11-20T02:57:43;81.78;;;35.40;;
72926;SDS011;61071;51.618;19.388;2022-11-20T03:00:09;89.47;;;35.15;;
72926;SDS011;61071;51.618;19.388;2022-11-20T03:02:35;85.00;;;38.22;;
72926;SDS011;61071;51.618;19.388;2022-11-20T03:05:01;97.03;;;39.28;;
72926;SDS011;61071;51.618;19.388;2022-11-20T03:07:27;92.53;;;37.85;;
72926;SDS011;61071;51.618;19.388;2022-11-20T03:09:53;84.18;;;37.88;;
72926;SDS011;61071;51.618;19.388;2022-11-20T03:12:19;90.53;;;38.38;;
72926;SDS011;61071;51.618;19.388;2022-11-20T03:14:44;95.72;;;42.13;;
72926;SDS011;61071;51.618;19.388;2022-11-20T03:17:10;93.07;;;40.83;;
72926;SDS011;61071;51.618;19.388;2022-11-20T03:19:36;83.35;;;39.13;;
72926;SDS011;61071;51.618;19.388;2022-11-20T03:22:01;88.93;;;38.50;;
72926;SDS011;61071;51.618;19.388;2022-11-20T03:24:28;91.13;;;36.92;;
72926;SDS011;61071;51.618;19.388;2022-11-20T03:26:53;87.88;;;37.38;;
72926;SDS011;61071;51.618;19.388;2022-11-20T03:29:19;91.32;;;38.45;;
72926;SDS011;61071;51.618;19.388;2022-11-20T03:31:45;83.20;;;36.60;;
72926;SDS011;61071;51.618;19.388;2022-11-20T03:34:10;94.05;;;37.63;;
72926;SDS011;61071;51.618;19.388;2022-11-20T03:36:38;87.57;;;37.45;;
72926;SDS011;61071;51.618;19.388;2022-11-20T03:39:05;91.25;;;39.60;;
72926;SDS011;61071;51.618;19.388;2022-11-20T03:41:35;88.45;;;36.67;;
72926;SDS011;61071;51.618;19.388;2022-11-20T03:44:04;88.65;;;37.40;;
72926;SDS011;61071;51.618;19.388;2022-11-20T03:46:33;84.43;;;36.20;;
72926;SDS011;61071;51.618;19.388;2022-11-20T03:48:59;83.43;;;34.88;;
72926;SDS011;61071;51.618;19.388;2022-11-20T03:51:26;87.53;;;36.88;;
72926;SDS011;61071;51.618;19.388;2022-11-20T03:53:58;93.47;;;37.83;;
72926;SDS011;61071;51.618;19.388;2022-11-20T03:56:31;87.70;;;36.97;;
72926;SDS011;61071;51.618;19.388;2022-11-20T03:59:00;84.43;;;36.90;;
72926;SDS011;61071;51.618;19.388;2022-11-20T04:01:35;81.05;;;35.63;;
72926;SDS011;61071;51.618;19.388;2022-11-20T04:04:05;93.72;;;38.55;;
72926;SDS011;61071;51.618;19.388;2022-11-20T04:06:33;91.53;;;37.58;;
72926;SDS011;61071;51.618;19.388;2022-11-20T04:09:02;88.78;;;37.28;;
72926;SDS011;61071;51.618;19.388;2022-11-20T04:11:29;88.75;;;37.75;;
72926;SDS011;61071;51.618;19.388;2022-11-20T04:13:58;95.72;;;38.78;;
72926;SDS011;61071;51.618;19.388;2022-11-20T04:16:28;97.68;;;38.45;;
72926;SDS011;61071;51.618;19.388;2022-11-20T04:18:56;94.65;;;36.83;;
72926;SDS011;61071;51.618;19.388;2022-11-20T04:21:24;93.45;;;37.25;;
72926;SDS011;61071;51.618;19.388;2022-11-20T04:23:51;85.32;;;37.65;;
72926;SDS011;61071;51.618;19.388;2022-11-20T04:26:18;95.15;;;37.50;;
72926;SDS011;61071;51.618;19.388;2022-11-20T04:28:46;87.45;;;38.10;;
72926;SDS011;61071;51.618;19.388;2022-11-20T04:31:12;82.47;;;36.00;;
72926;SDS011;61071;51.618;19.388;2022-11-20T04:33:40;91.47;;;36.33;;
72926;SDS011;61071;51.618;19.388;2022-11-20T04:36:09;84.30;;;34.97;;
72926;SDS011;61071;51.618;19.388;2022-11-20T04:38:41;83.47;;;34.20;;
72926;SDS011;61071;51.618;19.388;2022-11-20T04:41:08;101.65;;;38.47;;
72926;SDS011;61071;51.618;19.388;2022-11-20T04:43:40;90.90;;;36.50;;
72926;SDS011;61071;51.618;19.388;2022-11-20T04:46:06;80.57;;;32.45;;
72926;SDS011;61071;51.618;19.388;2022-11-20T04:48:32;84.15;;;34.67;;
72926;SDS011;61071;51.618;19.388;2022-11-20T04:51:02;87.30;;;34.47;;
72926;SDS011;61071;51.618;19.388;2022-11-20T04:53:29;86.03;;;35.45;;
72926;SDS011;61071;51.618;19.388;2022-11-20T04:56:02;86.95;;;34.58;;
72926;SDS011;61071;51.618;19.388;2022-11-20T04:58:33;91.15;;;35.35;;
72926;SDS011;61071;51.618;19.388;2022-11-20T05:01:00;85.03;;;31.63;;
72926;SDS011;61071;51.618;19.388;2022-11-20T05:03:30;98.95;;;36.33;;
72926;SDS011;61071;51.618;19.388;2022-11-20T05:05:56;94.25;;;35.70;;
72926;SDS011;61071;51.618;19.388;2022-11-20T05:08:26;88.45;;;36.50;;
72926;SDS011;61071;51.618;19.388;2022-11-20T05:10:52;91.60;;;35.97;;
72926;SDS011;61071;51.618;19.388;2022-11-20T05:13:18;92.05;;;38.55;;
72926;SDS011;61071;51.618;19.388;2022-11-20T05:15:43;97.47;;;38.45;;
72926;SDS011;61071;51.618;19.388;2022-11-20T05:18:09;95.13;;;38.95;;
72926;SDS011;61071;51.618;19.388;2022-11-20T05:20:34;97.82;;;38.50;;
72926;SDS011;61071;51.618;19.388;2022-11-20T05:23:01;95.68;;;39.03;;
72926;SDS011;61071;51.618;19.388;2022-11-20T05:25:27;85.07;;;34.78;;
72926;SDS011;61071;51.618;19.388;2022-11-20T05:27:53;94.32;;;37.35;;
72926;SDS011;61071;51.618;19.388;2022-11-20T05:30:19;95.32;;;37.92;;
72926;SDS011;61071;51.618;19.388;2022-11-20T05:32:44;97.95;;;37.97;;
72926;SDS011;61071;51.618;19.388;2022-11-20T05:35:10;96.97;;;40.75;;
72926;SDS011;61071;51.618;19.388;2022-11-20T05:37:36;101.60;;;42.92;;
72926;SDS011;61071;51.618;19.388;2022-11-20T05:40:01;98.85;;;42.03;;
72926;SDS011;61071;51.618;19.388;2022-11-20T05:42:30;101.93;;;42.72;;
72926;SDS011;61071;51.618;19.388;2022-11-20T05:45:03;100.15;;;40.22;;
72926;SDS011;61071;51.618;19.388;2022-11-20T05:47:33;98.38;;;39.60;;
72926;SDS011;61071;51.618;19.388;2022-11-20T05:50:00;89.75;;;37.63;;
72926;SDS011;61071;51.618;19.388;2022-11-20T05:52:29;102.78;;;39.50;;
72926;SDS011;61071;51.618;19.388;2022-11-20T05:54:56;97.38;;;36.63;;
72926;SDS011;61071;51.618;19.388;2022-11-20T05:57:22;98.07;;;38.33;;
72926;SDS011;61071;51.618;19.388;2022-11-20T05:59:47;101.15;;;40.35;;
72926;SDS011;61071;51.618;19.388;2022-11-20T06:02:13;96.47;;;39.58;;
72926;SDS011;61071;51.618;19.388;2022-11-20T06:04:39;105.90;;;40.40;;
72926;SDS011;61071;51.618;19.388;2022-11-20T06:07:05;102.22;;;41.00;;
72926;SDS011;61071;51.618;19.388;2022-11-20T06:09:31;103.07;;;41.50;;
72926;SDS011;61071;51.618;19.388;2022-11-20T06:11:57;112.38;;;42.90;;
72926;SDS011;61071;51.618;19.388;2022-11-20T06:14:23;106.57;;;42.33;;
72926;SDS011;61071;51.618;19.388;2022-11-20T06:16:48;100.07;;;42.92;;
72926;SDS011;61071;51.618;19.388;2022-11-20T06:19:14;105.15;;;42.20;;
72926;SDS011;61071;51.618;19.388;2022-11-20T06:21:40;104.57;;;41.20;;
72926;SDS011;61071;51.618;19.388;2022-11-20T06:24:06;105.53;;;42.03;;
72926;SDS011;61071;51.618;19.388;2022-11-20T06:26:35;100.82;;;39.53;;
72926;SDS011;61071;51.618;19.388;2022-11-20T06:29:00;100.70;;;40.47;;
72926;SDS011;61071;51.618;19.388;2022-11-20T06:31:26;95.90;;;39.75;;
72926;SDS011;61071;51.618;19.388;2022-11-20T06:33:52;92.40;;;38.60;;
72926;SDS011;61071;51.618;19.388;2022-11-20T06:36:19;96.15;;;40.08;;
72926;SDS011;61071;51.618;19.388;2022-11-20T06:38:47;93.57;;;38.75;;
72926;SDS011;61071;51.618;19.388;2022-11-20T06:41:15;97.63;;;40.20;;
72926;SDS011;61071;51.618;19.388;2022-11-20T06:43:44;92.55;;;38.05;;
72926;SDS011;61071;51.618;19.388;2022-11-20T06:46:10;96.60;;;40.72;;
72926;SDS011;61071;51.618;19.388;2022-11-20T06:48:38;95.85;;;40.50;;
72926;SDS011;61071;51.618;19.388;2022-11-20T06:51:05;101.85;;;39.13;;
72926;SDS011;61071;51.618;19.388;2022-11-20T06:53:32;99.03;;;39.33;;
72926;SDS011;61071;51.618;19.388;2022-11-20T06:55:58;99.03;;;39.42;;
72926;SDS011;61071;51.618;19.388;2022-11-20T06:58:28;97.20;;;39.08;;
72926;SDS011;61071;51.618;19.388;2022-11-20T07:03:30;94.25;;;38.85;;
72926;SDS011;61071;51.618;19.388;2022-11-20T07:05:56;97.75;;;40.60;;
72926;SDS011;61071;51.618;19.388;2022-11-20T07:08:25;98.93;;;40.25;;
72926;SDS011;61071;51.618;19.388;2022-11-20T07:10:50;102.60;;;43.05;;
72926;SDS011;61071;51.618;19.388;2022-11-20T07:13:16;103.10;;;45.85;;
72926;SDS011;61071;51.618;19.388;2022-11-20T07:15:42;106.18;;;43.30;;
72926;SDS011;61071;51.618;19.388;2022-11-20T07:18:08;104.50;;;45.60;;
72926;SDS011;61071;51.618;19.388;2022-11-20T07:20:33;104.93;;;44.13;;
72926;SDS011;61071;51.618;19.388;2022-11-20T07:23:00;102.15;;;46.35;;
72926;SDS011;61071;51.618;19.388;2022-11-20T07:25:26;109.88;;;46.42;;
72926;SDS011;61071;51.618;19.388;2022-11-20T07:27:57;108.10;;;46.80;;
72926;SDS011;61071;51.618;19.388;2022-11-20T07:30:23;110.95;;;45.65;;
72926;SDS011;61071;51.618;19.388;2022-11-20T07:32:53;112.90;;;46.67;;
72926;SDS011;61071;51.618;19.388;2022-11-20T07:35:20;108.53;;;45.22;;
72926;SDS011;61071;51.618;19.388;2022-11-20T07:37:47;102.65;;;45.92;;
72926;SDS011;61071;51.618;19.388;2022-11-20T07:40:13;112.88;;;45.92;;
72926;SDS011;61071;51.618;19.388;2022-11-20T07:42:50;101.30;;;44.00;;
72926;SDS011;61071;51.618;19.388;2022-11-20T07:45:18;100.18;;;42.17;;
72926;SDS011;61071;51.618;19.388;2022-11-20T07:47:46;105.60;;;44.38;;
72926;SDS011;61071;51.618;19.388;2022-11-20T07:50:12;97.30;;;42.05;;
72926;SDS011;61071;51.618;19.388;2022-11-20T07:52:38;95.97;;;44.38;;
72926;SDS011;61071;51.618;19.388;2022-11-20T07:55:05;100.07;;;43.90;;
72926;SDS011;61071;51.618;19.388;2022-11-20T07:57:32;90.65;;;39.97;;
72926;SDS011;61071;51.618;19.388;2022-11-20T07:59:58;90.28;;;41.67;;
72926;SDS011;61071;51.618;19.388;2022-11-20T08:02:24;100.68;;;44.17;;
72926;SDS011;61071;51.618;19.388;2022-11-20T08:04:49;96.22;;;41.40;;
72926;SDS011;61071;51.618;19.388;2022-11-20T08:07:16;95.45;;;41.65;;
72926;SDS011;61071;51.618;19.388;2022-11-20T08:09:42;91.05;;;43.17;;
72926;SDS011;61071;51.618;19.388;2022-11-20T08:12:07;92.07;;;42.20;;
72926;SDS011;61071;51.618;19.388;2022-11-20T08:15:00;84.28;;;36.67;;
72926;SDS011;61071;51.618;19.388;2022-11-20T08:17:26;89.40;;;39.75;;
72926;SDS011;61071;51.618;19.388;2022-11-20T08:19:51;84.50;;;35.15;;
72926;SDS011;61071;51.618;19.388;2022-11-20T08:22:17;80.72;;;37.22;;
72926;SDS011;61071;51.618;19.388;2022-11-20T08:24:43;78.32;;;36.13;;
72926;SDS011;61071;51.618;19.388;2022-11-20T08:27:08;80.78;;;35.72;;
72926;SDS011;61071;51.618;19.388;2022-11-20T08:29:34;77.30;;;33.67;;
72926;SDS011;61071;51.618;19.388;2022-11-20T08:32:00;79.53;;;35.25;;
72926;SDS011;61071;51.618;19.388;2022-11-20T08:34:25;81.88;;;34.08;;
72926;SDS011;61071;51.618;19.388;2022-11-20T08:36:51;79.13;;;34.78;;
72926;SDS011;61071;51.618;19.388;2022-11-20T08:39:17;66.50;;;30.88;;
72926;SDS011;61071;51.618;19.388;2022-11-20T08:41:42;76.72;;;34.13;;
72926;SDS011;61071;51.618;19.388;2022-11-20T08:44:08;67.45;;;32.28;;
72926;SDS011;61071;51.618;19.388;2022-11-20T08:46:34;67.90;;;32.92;;
72926;SDS011;61071;51.618;19.388;2022-11-20T08:49:07;75.10;;;34.03;;
72926;SDS011;61071;51.618;19.388;2022-11-20T08:51:36;75.28;;;34.53;;
72926;SDS011;61071;51.618;19.388;2022-11-20T08:54:03;70.78;;;33.72;;
72926;SDS011;61071;51.618;19.388;2022-11-20T08:56:30;71.72;;;32.70;;
72926;SDS011;61071;51.618;19.388;2022-11-20T08:58:56;66.80;;;32.13;;
72926;SDS011;61071;51.618;19.388;2022-11-20T09:01:22;58.13;;;29.25;;
72926;SDS011;61071;51.618;19.388;2022-11-20T09:03:48;58.55;;;28.23;;
72926;SDS011;61071;51.618;19.388;2022-11-20T09:06:15;56.88;;;27.20;;
72926;SDS011;61071;51.618;19.388;2022-11-20T09:08:41;53.45;;;28.73;;
72926;SDS011;61071;51.618;19.388;2022-11-20T09:11:07;61.90;;;31.00;;
72926;SDS011;61071;51.618;19.388;2022-11-20T09:13:34;56.53;;;28.38;;
72926;SDS011;61071;51.618;19.388;2022-11-20T09:16:02;57.38;;;29.27;;
72926;SDS011;61071;51.618;19.388;2022-11-20T09:18:32;57.97;;;26.37;;
72926;SDS011;61071;51.618;19.388;2022-11-20T09:21:05;59.90;;;28.38;;
72926;SDS011;61071;51.618;19.388;2022-11-20T09:23:36;52.00;;;25.85;;
72926;SDS011;61071;51.618;19.388;2022-11-20T09:26:07;62.15;;;27.48;;
72926;SDS011;61071;51.618;19.388;2022-11-20T09:28:36;51.53;;;25.38;;
72926;SDS011;61071;51.618;19.388;2022-11-20T09:31:04;52.45;;;25.92;;
72926;SDS011;61071;51.618;19.388;2022-11-20T09:33:35;57.78;;;29.98;;
72926;SDS011;61071;51.618;19.388;2022-11-20T09:36:01;57.20;;;27.58;;
72926;SDS011;61071;51.618;19.388;2022-11-20T09:38:27;56.88;;;29.27;;
72926;SDS011;61071;51.618;19.388;2022-11-20T09:43:28;56.00;;;27.02;;
72926;SDS011;61071;51.618;19.388;2022-11-20T09:49:35;62.88;;;28.40;;
72926;SDS011;61071;51.618;19.388;2022-11-20T09:51:58;58.05;;;26.50;;
72926;SDS011;61071;51.618;19.388;2022-11-20T09:54:35;51.75;;;25.17;;
72926;SDS011;61071;51.618;19.388;2022-11-20T09:57:09;50.08;;;25.27;;
72926;SDS011;61071;51.618;19.388;2022-11-20T09:59:49;48.17;;;24.15;;
72926;SDS011;61071;51.618;19.388;2022-11-20T10:26:17;59.38;;;26.95;;
72926;SDS011;61071;51.618;19.388;2022-11-20T10:31:41;62.15;;;26.13;;
72926;SDS011;61071;51.618;19.388;2022-11-20T10:36:56;57.10;;;26.13;;
72926;SDS011;61071;51.618;19.388;2022-11-20T10:48:39;63.53;;;26.95;;
72926;SDS011;61071;51.618;19.388;2022-11-20T10:51:18;64.05;;;31.13;;
72926;SDS011;61071;51.618;19.388;2022-11-20T10:57:25;64.53;;;31.20;;
72926;SDS011;61071;51.618;19.388;2022-11-20T11:00:27;64.05;;;29.25;;
72926;SDS011;61071;51.618;19.388;2022-11-20T11:02:56;67.75;;;32.67;;
72926;SDS011;61071;51.618;19.388;2022-11-20T11:07:59;54.47;;;23.85;;
72926;SDS011;61071;51.618;19.388;2022-11-20T11:10:28;60.00;;;27.17;;
72926;SDS011;61071;51.618;19.388;2022-11-20T11:13:24;55.85;;;26.42;;
72926;SDS011;61071;51.618;19.388;2022-11-20T11:15:51;54.90;;;25.88;;
72926;SDS011;61071;51.618;19.388;2022-11-20T11:18:27;55.30;;;27.13;;
72926;SDS011;61071;51.618;19.388;2022-11-20T11:20:59;57.30;;;26.10;;
72926;SDS011;61071;51.618;19.388;2022-11-20T11:23:39;53.92;;;26.20;;
72926;SDS011;61071;51.618;19.388;2022-11-20T11:26:18;67.78;;;25.67;;
72926;SDS011;61071;51.618;19.388;2022-11-20T11:31:22;55.28;;;27.17;;
72926;SDS011;61071;51.618;19.388;2022-11-20T11:34:12;61.60;;;29.33;;
72926;SDS011;61071;51.618;19.388;2022-11-20T11:36:41;57.00;;;28.05;;
72926;SDS011;61071;51.618;19.388;2022-11-20T11:39:15;56.13;;;26.80;;
72926;SDS011;61071;51.618;19.388;2022-11-20T11:41:44;48.05;;;22.83;;
72926;SDS011;61071;51.618;19.388;2022-11-20T11:44:21;48.97;;;23.02;;
72926;SDS011;61071;51.618;19.388;2022-11-20T11:50:13;45.60;;;22.25;;
72926;SDS011;61071;51.618;19.388;2022-11-20T11:58:48;48.80;;;22.15;;
72926;SDS011;61071;51.618;19.388;2022-11-20T12:01:23;52.65;;;24.98;;
72926;SDS011;61071;51.618;19.388;2022-11-20T12:04:17;41.65;;;20.00;;
72926;SDS011;61071;51.618;19.388;2022-11-20T12:10:22;39.15;;;21.52;;
72926;SDS011;61071;51.618;19.388;2022-11-20T12:12:55;41.67;;;20.55;;
72926;SDS011;61071;51.618;19.388;2022-11-20T12:15:30;42.38;;;19.50;;
72926;SDS011;61071;51.618;19.388;2022-11-20T12:17:59;40.15;;;19.02;;
72926;SDS011;61071;51.618;19.388;2022-11-20T12:20:29;44.47;;;21.52;;
72926;SDS011;61071;51.618;19.388;2022-11-20T12:23:13;41.95;;;20.83;;
72926;SDS011;61071;51.618;19.388;2022-11-20T12:25:56;45.22;;;20.83;;
72926;SDS011;61071;51.618;19.388;2022-11-20T12:28:44;41.75;;;20.73;;
72926;SDS011;61071;51.618;19.388;2022-11-20T12:34:43;42.20;;;19.95;;
72926;SDS011;61071;51.618;19.388;2022-11-20T12:46:12;41.25;;;21.60;;
72926;SDS011;61071;51.618;19.388;2022-11-20T12:51:35;46.88;;;22.50;;
72926;SDS011;61071;51.618;19.388;2022-11-20T12:54:38;46.40;;;24.40;;
72926;SDS011;61071;51.618;19.388;2022-11-20T12:57:20;47.47;;;22.50;;
72926;SDS011;61071;51.618;19.388;2022-11-20T13:07:52;48.22;;;23.27;;
72926;SDS011;61071;51.618;19.388;2022-11-20T13:10:21;50.85;;;24.40;;
72926;SDS011;61071;51.618;19.388;2022-11-20T13:13:07;48.30;;;23.13;;
72926;SDS011;61071;51.618;19.388;2022-11-20T13:16:05;49.50;;;24.95;;
72926;SDS011;61071;51.618;19.388;2022-11-20T13:18:50;50.45;;;23.85;;
72926;SDS011;61071;51.618;19.388;2022-11-20T13:21:21;47.00;;;24.63;;
72926;SDS011;61071;51.618;19.388;2022-11-20T13:24:07;48.78;;;23.83;;
72926;SDS011;61071;51.618;19.388;2022-11-20T13:29:37;51.30;;;24.27;;
72926;SDS011;61071;51.618;19.388;2022-11-20T13:37:30;50.95;;;24.52;;
72926;SDS011;61071;51.618;19.388;2022-11-20T13:42:43;54.22;;;25.77;;
72926;SDS011;61071;51.618;19.388;2022-11-20T13:45:23;55.75;;;26.80;;
72926;SDS011;61071;51.618;19.388;2022-11-20T13:47:53;57.10;;;27.95;;
72926;SDS011;61071;51.618;19.388;2022-11-20T13:50:21;58.70;;;28.75;;
72926;SDS011;61071;51.618;19.388;2022-11-20T13:53:18;62.20;;;29.50;;
72926;SDS011;61071;51.618;19.388;2022-11-20T13:55:49;66.10;;;28.60;;
72926;SDS011;61071;51.618;19.388;2022-11-20T14:01:36;61.17;;;30.05;;
72926;SDS011;61071;51.618;19.388;2022-11-20T14:04:06;69.43;;;33.63;;
72926;SDS011;61071;51.618;19.388;2022-11-20T14:06:39;74.90;;;33.70;;
72926;SDS011;61071;51.618;19.388;2022-11-20T14:09:10;68.97;;;33.13;;
72926;SDS011;61071;51.618;19.388;2022-11-20T14:11:55;65.05;;;31.60;;
72926;SDS011;61071;51.618;19.388;2022-11-20T14:14:32;59.50;;;30.73;;
72926;SDS011;61071;51.618;19.388;2022-11-20T14:17:05;63.90;;;31.00;;
72926;SDS011;61071;51.618;19.388;2022-11-20T14:19:41;66.95;;;31.58;;
72926;SDS011;61071;51.618;19.388;2022-11-20T14:22:16;69.50;;;32.35;;
72926;SDS011;61071;51.618;19.388;2022-11-20T14:24:49;66.15;;;31.67;;
72926;SDS011;61071;51.618;19.388;2022-11-20T14:27:26;64.85;;;30.23;;
72926;SDS011;61071;51.618;19.388;2022-11-20T14:29:52;69.00;;;31.77;;
72926;SDS011;61071;51.618;19.388;2022-11-20T14:32:19;65.93;;;32.45;;
72926;SDS011;61071;51.618;19.388;2022-11-20T14:34:49;86.63;;;41.20;;
72926;SDS011;61071;51.618;19.388;2022-11-20T14:37:24;92.30;;;44.65;;
72926;SDS011;61071;51.618;19.388;2022-11-20T14:39:55;295.25;;;223.65;;
72926;SDS011;61071;51.618;19.388;2022-11-20T14:42:27;193.23;;;141.35;;
72926;SDS011;61071;51.618;19.388;2022-11-20T14:44:56;105.88;;;65.65;;
72926;SDS011;61071;51.618;19.388;2022-11-20T14:47:25;124.53;;;84.57;;
72926;SDS011;61071;51.618;19.388;2022-11-20T14:49:55;68.75;;;36.47;;
72926;SDS011;61071;51.618;19.388;2022-11-20T14:52:24;87.82;;;51.92;;
72926;SDS011;61071;51.618;19.388;2022-11-20T14:54:56;89.70;;;54.97;;
72926;SDS011;61071;51.618;19.388;2022-11-20T14:57:28;77.65;;;43.90;;
72926;SDS011;61071;51.618;19.388;2022-11-20T15:00:07;78.35;;;41.20;;
72926;SDS011;61071;51.618;19.388;2022-11-20T15:02:46;86.38;;;42.38;;
72926;SDS011;61071;51.618;19.388;2022-11-20T15:05:14;102.13;;;60.50;;
72926;SDS011;61071;51.618;19.388;2022-11-20T15:07:45;87.97;;;48.53;;
72926;SDS011;61071;51.618;19.388;2022-11-20T15:10:28;92.53;;;50.17;;
72926;SDS011;61071;51.618;19.388;2022-11-20T15:13:01;92.07;;;49.97;;
72926;SDS011;61071;51.618;19.388;2022-11-20T15:15:43;98.25;;;56.85;;
72926;SDS011;61071;51.618;19.388;2022-11-20T15:18:11;76.68;;;39.08;;
72926;SDS011;61071;51.618;19.388;2022-11-20T15:20:40;74.60;;;39.97;;
72926;SDS011;61071;51.618;19.388;2022-11-20T15:23:14;109.57;;;58.28;;
72926;SDS011;61071;51.618;19.388;2022-11-20T15:25:45;93.07;;;49.40;;
72926;SDS011;61071;51.618;19.388;2022-11-20T15:28:21;129.75;;;85.30;;
72926;SDS011;61071;51.618;19.388;2022-11-20T15:31:00;96.53;;;61.67;;
72926;SDS011;61071;51.618;19.388;2022-11-20T15:33:28;124.43;;;81.18;;
72926;SDS011;61071;51.618;19.388;2022-11-20T15:35:54;192.43;;;131.85;;
72926;SDS011;61071;51.618;19.388;2022-11-20T15:38:20;145.90;;;93.07;;
72926;SDS011;61071;51.618;19.388;2022-11-20T15:40:45;106.97;;;61.72;;
72926;SDS011;61071;51.618;19.388;2022-11-20T15:43:11;123.65;;;73.40;;
72926;SDS011;61071;51.618;19.388;2022-11-20T15:45:38;89.93;;;44.55;;
72926;SDS011;61071;51.618;19.388;2022-11-20T15:48:12;104.20;;;56.22;;
72926;SDS011;61071;51.618;19.388;2022-11-20T15:51:32;228.07;;;133.18;;
72926;SDS011;61071;51.618;19.388;2022-11-20T15:53:35;108.30;;;58.38;;
72926;SDS011;61071;51.618;19.388;2022-11-20T15:56:03;141.18;;;83.38;;
72926;SDS011;61071;51.618;19.388;2022-11-20T15:58:29;98.72;;;51.25;;
72926;SDS011;61071;51.618;19.388;2022-11-20T16:00:55;123.20;;;64.22;;
72926;SDS011;61071;51.618;19.388;2022-11-20T16:03:21;150.65;;;89.25;;
72926;SDS011;61071;51.618;19.388;2022-11-20T16:05:48;175.63;;;101.00;;
72926;SDS011;61071;51.618;19.388;2022-11-20T16:08:14;300.17;;;171.38;;
72926;SDS011;61071;51.618;19.388;2022-11-20T16:10:40;165.05;;;87.15;;
72926;SDS011;61071;51.618;19.388;2022-11-20T16:13:16;191.93;;;101.07;;
72926;SDS011;61071;51.618;19.388;2022-11-20T16:16:05;177.80;;;92.15;;
72926;SDS011;61071;51.618;19.388;2022-11-20T16:18:42;158.85;;;64.03;;